Time;durP1;ratioP1;P1;durP2;ratioP2;P2;SDS_P1;SDS_P2;PMS_P1;PMS_P2;Temp;Humidity;BMP_temperature;BMP_pressure;BME280_temperature;BME280_humidity;BME280_pressure;Samples;Min_cycle;Max_cycle;Signal;HPM_P1;HPM_P2
2023/01/24 00:00:33;;;;;;;18.02;13.88;;;2.90;99.90;;;;;;5106157;28;20048;-69
2023/01/24 00:02:58;;;;;;;18.45;13.77;;;2.90;99.90;;;;;;5109942;28;20075;-71
2023/01/24 00:05:24;;;;;;;17.38;13.40;;;2.90;99.90;;;;;;5086080;28;20047;-67
2023/01/24 00:07:50;;;;;;;21.38;14.85;;;2.80;99.90;;;;;;5090012;28;20130;-69
2023/01/24 00:10:16;;;;;;;19.63;15.10;;;2.90;99.90;;;;;;5082869;28;20405;-68
2023/01/24 00:12:42;;;;;;;18.92;14.88;;;2.80;99.90;;;;;;5093310;28;20373;-68
2023/01/24 00:15:08;;;;;;;25.80;16.33;;;2.80;99.90;;;;;;5102800;28;20044;-69
2023/01/24 00:17:33;;;;;;;19.88;15.52;;;2.80;99.90;;;;;;5094954;28;20456;-68
2023/01/24 00:19:59;;;;;;;20.40;16.00;;;2.80;99.90;;;;;;5088213;28;20070;-68
2023/01/24 00:22:25;;;;;;;21.63;16.38;;;2.80;99.90;;;;;;5081860;28;20036;-69
2023/01/24 00:24:50;;;;;;;21.00;16.13;;;2.80;99.90;;;;;;5072942;28;20109;-69
2023/01/24 00:27:17;;;;;;;21.42;16.73;;;3.00;99.90;;;;;;5105697;28;20050;-69
2023/01/24 00:29:43;;;;;;;23.25;17.75;;;2.90;99.90;;;;;;5096433;28;20081;-67
2023/01/24 00:32:09;;;;;;;22.08;17.73;;;2.90;99.90;;;;;;5091836;28;20531;-68
2023/01/24 00:34:35;;;;;;;23.63;17.60;;;2.80;99.90;;;;;;5080608;28;20143;-68
2023/01/24 00:37:00;;;;;;;23.67;16.83;;;2.80;99.90;;;;;;5083139;28;20131;-68
2023/01/24 00:39:26;;;;;;;26.85;18.80;;;2.80;99.90;;;;;;5106811;28;20054;-68
2023/01/24 00:41:52;;;;;;;23.70;17.80;;;2.80;99.90;;;;;;5114301;28;20123;-69
2023/01/24 00:44:17;;;;;;;24.30;19.38;;;2.80;99.90;;;;;;5084925;28;20089;-69
2023/01/24 00:46:44;;;;;;;24.17;17.65;;;2.80;99.90;;;;;;5096739;28;20035;-67
2023/01/24 00:49:10;;;;;;;26.48;18.60;;;2.70;99.90;;;;;;5102724;28;20046;-69
2023/01/24 00:51:35;;;;;;;28.73;19.40;;;2.80;99.90;;;;;;5114131;28;20455;-68
2023/01/24 00:54:01;;;;;;;27.25;19.33;;;2.80;99.90;;;;;;5094199;28;20400;-68
2023/01/24 00:56:27;;;;;;;27.50;19.75;;;3.10;99.90;;;;;;5095446;28;20672;-68
2023/01/24 00:58:53;;;;;;;25.95;18.95;;;2.80;99.90;;;;;;5090107;28;20040;-69
2023/01/24 01:01:19;;;;;;;28.73;19.60;;;2.80;99.90;;;;;;5077668;28;20087;-69
2023/01/24 01:03:44;;;;;;;26.85;18.75;;;3.00;99.90;;;;;;5091115;28;20082;-69
2023/01/24 01:06:14;;;;;;;28.05;19.23;;;2.80;99.90;;;;;;5078345;28;20079;-67
2023/01/24 01:08:40;;;;;;;26.15;18.75;;;2.80;99.90;;;;;;5085978;28;20039;-68
2023/01/24 01:11:07;;;;;;;25.77;18.98;;;2.80;99.90;;;;;;5112026;28;20044;-69
2023/01/24 01:13:33;;;;;;;28.45;18.50;;;3.20;99.90;;;;;;5087588;28;20123;-68
2023/01/24 01:16:02;;;;;;;28.27;19.10;;;2.80;99.90;;;;;;5106791;28;20135;-68
2023/01/24 01:18:28;;;;;;;25.95;19.48;;;2.80;99.90;;;;;;5098432;28;20036;-67
2023/01/24 01:20:54;;;;;;;29.40;20.85;;;2.80;99.90;;;;;;5108545;28;20172;-69
2023/01/24 01:23:20;;;;;;;28.75;20.73;;;3.10;99.90;;;;;;5091706;28;20044;-69
2023/01/24 01:25:45;;;;;;;28.10;19.95;;;2.80;99.90;;;;;;5085913;28;20043;-67
2023/01/24 01:28:11;;;;;;;27.25;20.30;;;2.80;99.90;;;;;;5092569;28;20043;-71
2023/01/24 01:30:37;;;;;;;28.75;21.23;;;2.80;99.90;;;;;;5099682;28;20044;-68
2023/01/24 01:33:02;;;;;;;29.75;20.30;;;2.80;99.90;;;;;;5091974;28;20039;-69
2023/01/24 01:35:28;;;;;;;31.63;21.63;;;2.70;99.90;;;;;;5094817;28;20075;-69
2023/01/24 01:37:54;;;;;;;29.73;20.55;;;2.70;99.90;;;;;;5091568;28;20127;-69
2023/01/24 01:40:19;;;;;;;28.48;20.38;;;2.80;99.90;;;;;;5079575;28;20044;-69
2023/01/24 01:42:51;;;;;;;28.92;21.08;;;2.70;99.90;;;;;;5105609;28;20051;-67
2023/01/24 01:45:37;;;;;;;30.08;20.85;;;2.80;99.90;;;;;;5091178;28;20143;-69
2023/01/24 01:48:30;;;;;;;28.75;22.00;;;2.80;99.90;;;;;;5093379;28;20485;-69
2023/01/24 01:51:09;;;;;;;28.77;20.52;;;2.80;99.90;;;;;;5088530;28;20047;-68
2023/01/24 01:53:45;;;;;;;29.48;20.95;;;2.80;99.90;;;;;;5094304;28;20619;-68
2023/01/24 01:56:24;;;;;;;28.63;21.05;;;2.80;99.90;;;;;;5113028;28;20086;-68
2023/01/24 01:58:51;;;;;;;31.25;22.48;;;2.80;99.90;;;;;;5112917;28;20086;-69
2023/01/24 02:01:16;;;;;;;30.98;21.35;;;2.80;99.90;;;;;;5093508;28;20130;-72
2023/01/24 02:03:48;;;;;;;32.33;22.77;;;2.80;99.90;;;;;;5088646;28;20119;-68
2023/01/24 02:06:31;;;;;;;30.95;22.10;;;2.80;99.90;;;;;;5113114;28;20393;-68
2023/01/24 02:08:57;;;;;;;30.00;21.00;;;2.80;99.90;;;;;;5091688;28;20075;-68
2023/01/24 02:11:39;;;;;;;30.42;21.42;;;2.70;99.90;;;;;;5111081;28;20110;-69
2023/01/24 02:16:56;;;;;;;29.70;20.35;;;2.70;99.90;;;;;;5106607;28;20047;-68
2023/01/24 02:19:46;;;;;;;30.45;21.10;;;2.80;99.90;;;;;;5089120;28;20079;-68
2023/01/24 02:22:35;;;;;;;29.08;21.25;;;2.80;99.90;;;;;;5084521;28;20060;-68
2023/01/24 02:25:20;;;;;;;33.22;22.13;;;2.70;99.90;;;;;;5074346;28;20063;-68
2023/01/24 02:27:45;;;;;;;;;;;2.70;99.90;;;;;;5106828;28;20097;-68
2023/01/24 02:30:11;;;;;;;32.38;21.10;;;2.80;99.90;;;;;;5112374;28;19963;-68
2023/01/24 02:32:37;;;;;;;36.10;23.27;;;2.80;99.90;;;;;;5097790;28;20039;-68
2023/01/24 02:35:03;;;;;;;31.35;22.88;;;2.80;99.90;;;;;;5076377;28;20043;-68
2023/01/24 02:37:29;;;;;;;32.80;22.13;;;2.80;99.90;;;;;;5098858;28;20394;-69
2023/01/24 02:40:02;;;;;;;32.13;22.48;;;2.80;99.90;;;;;;5087129;28;20044;-72
2023/01/24 02:42:35;;;;;;;32.97;21.88;;;2.70;99.90;;;;;;5099086;28;20055;-67
2023/01/24 02:45:13;;;;;;;28.92;20.88;;;2.80;99.90;;;;;;5109416;28;20075;-68
2023/01/24 02:47:46;;;;;;;32.13;21.50;;;2.80;99.90;;;;;;5084367;28;20077;-68
2023/01/24 02:50:12;;;;;;;30.27;21.15;;;3.10;99.90;;;;;;5093764;28;20385;-67
2023/01/24 02:55:22;;;;;;;30.85;22.42;;;2.80;99.90;;;;;;5091814;28;20047;-72
2023/01/24 02:58:06;;;;;;;32.08;22.55;;;2.80;99.90;;;;;;5101558;28;20131;-70
2023/01/24 03:00:41;;;;;;;33.00;22.38;;;2.80;99.90;;;;;;5073009;28;20437;-69
2023/01/24 03:03:08;;;;;;;32.70;21.80;;;2.80;99.90;;;;;;5093144;28;20110;-68
2023/01/24 03:05:56;;;;;;;29.48;20.98;;;2.80;99.90;;;;;;5102453;28;20067;-69
2023/01/24 03:08:30;;;;;;;32.03;22.08;;;2.70;99.90;;;;;;5082205;28;20059;-68
2023/01/24 03:10:56;;;;;;;30.75;21.92;;;2.70;99.90;;;;;;5109587;28;20059;-68
2023/01/24 03:35:18;;;;;;;30.77;21.00;;;2.80;99.90;;;;;;5110338;28;20075;-68
2023/01/24 03:40:28;;;;;;;26.42;20.85;;;2.70;99.90;;;;;;5096978;28;20062;-72
2023/01/24 03:42:54;;;;;;;28.42;21.10;;;2.80;99.90;;;;;;5092201;28;20494;-69
2023/01/24 03:45:26;;;;;;;29.77;21.25;;;2.70;99.90;;;;;;5073549;28;20067;-68
2023/01/24 03:47:54;;;;;;;29.60;19.52;;;2.80;99.90;;;;;;5099352;28;20063;-67
2023/01/24 03:53:27;;;;;;;29.50;20.33;;;2.80;99.90;;;;;;5111032;28;20063;-68
2023/01/24 03:55:56;;;;;;;28.13;20.27;;;2.80;99.90;;;;;;5110220;28;20048;-68
2023/01/24 03:58:23;;;;;;;29.33;21.15;;;2.80;99.90;;;;;;5086235;28;20054;-68
2023/01/24 04:00:48;;;;;;;31.92;20.83;;;2.80;99.90;;;;;;5095772;28;20048;-68
2023/01/24 04:03:14;;;;;;;29.17;21.83;;;2.70;99.90;;;;;;5111041;28;20031;-68
2023/01/24 04:05:40;;;;;;;28.02;20.85;;;2.60;99.90;;;;;;5092455;28;20132;-68
2023/01/24 04:08:06;;;;;;;27.75;20.60;;;2.80;99.90;;;;;;5077603;28;20052;-68
2023/01/24 04:10:31;;;;;;;29.55;20.95;;;2.70;99.90;;;;;;5103818;28;20040;-69
2023/01/24 04:12:57;;;;;;;30.65;21.98;;;2.80;99.90;;;;;;5103835;28;20405;-68
2023/01/24 04:15:29;;;;;;;30.00;21.15;;;2.80;99.90;;;;;;5110797;28;20370;-68
2023/01/24 04:17:59;;;;;;;28.95;20.10;;;2.80;99.90;;;;;;5077626;28;20050;-69
2023/01/24 04:20:26;;;;;;;30.50;20.73;;;3.10;99.90;;;;;;5085701;28;20129;-68
2023/01/24 04:22:52;;;;;;;27.95;19.67;;;2.80;99.90;;;;;;5083742;28;20051;-68
2023/01/24 04:25:18;;;;;;;27.42;19.52;;;2.70;99.90;;;;;;5090669;28;20043;-69
2023/01/24 04:27:44;;;;;;;25.25;18.52;;;2.80;99.90;;;;;;5083663;28;20127;-67
2023/01/24 04:30:12;;;;;;;24.75;19.08;;;2.90;99.90;;;;;;5104003;28;20528;-68
2023/01/24 04:32:37;;;;;;;29.27;19.38;;;2.80;99.90;;;;;;5062905;28;20056;-71
2023/01/24 04:35:04;;;;;;;26.73;19.17;;;2.80;99.90;;;;;;5078106;28;20106;-68
2023/01/24 04:37:32;;;;;;;29.25;18.05;;;2.80;99.90;;;;;;5087233;28;20059;-67
2023/01/24 04:39:58;;;;;;;25.23;17.92;;;2.90;99.90;;;;;;5102234;28;20052;-69
2023/01/24 04:42:24;;;;;;;26.77;18.63;;;2.80;99.90;;;;;;5088899;28;20052;-68
2023/01/24 04:44:49;;;;;;;22.35;16.77;;;2.80;99.90;;;;;;5089236;28;20051;-68
2023/01/24 04:47:15;;;;;;;25.13;18.92;;;2.80;99.90;;;;;;5092753;28;20463;-68
2023/01/24 04:49:41;;;;;;;21.27;16.27;;;2.70;99.90;;;;;;5048408;28;20135;-68
2023/01/24 04:52:12;;;;;;;23.52;17.13;;;2.70;99.90;;;;;;5096328;28;20097;-68
2023/01/24 04:54:41;;;;;;;22.75;16.48;;;2.80;99.90;;;;;;5077404;28;20492;-69
2023/01/24 04:57:10;;;;;;;22.02;17.48;;;2.80;99.90;;;;;;5103249;28;20084;-68
2023/01/24 04:59:36;;;;;;;19.33;14.95;;;2.80;99.90;;;;;;5110027;28;20548;-68
2023/01/24 05:02:01;;;;;;;18.80;15.05;;;2.80;99.90;;;;;;5083880;28;20127;-67
2023/01/24 05:04:27;;;;;;;21.30;16.23;;;2.80;99.90;;;;;;5111324;28;20035;-69
2023/01/24 05:06:53;;;;;;;19.83;15.23;;;2.80;99.90;;;;;;5089898;28;20083;-68
2023/01/24 05:09:19;;;;;;;21.27;15.98;;;2.80;99.90;;;;;;5090187;28;20087;-68
2023/01/24 05:11:44;;;;;;;20.67;16.10;;;2.80;99.90;;;;;;5100215;28;20082;-69
2023/01/24 05:14:10;;;;;;;29.80;15.77;;;2.80;99.90;;;;;;5093908;28;20047;-68
2023/01/24 05:16:37;;;;;;;20.35;16.15;;;2.70;99.90;;;;;;5094521;28;20035;-69
2023/01/24 05:19:03;;;;;;;20.10;15.50;;;2.80;99.90;;;;;;5102914;28;20118;-68
2023/01/24 05:21:29;;;;;;;18.13;14.27;;;2.80;99.90;;;;;;5111570;28;20104;-69
2023/01/24 05:23:55;;;;;;;19.75;14.57;;;2.80;99.90;;;;;;5109165;28;20123;-68
2023/01/24 05:26:22;;;;;;;20.70;15.07;;;2.80;99.90;;;;;;5104090;28;20044;-68
2023/01/24 05:28:49;;;;;;;19.20;14.05;;;2.80;99.90;;;;;;5101235;28;20185;-69
2023/01/24 05:31:15;;;;;;;18.83;15.10;;;2.80;99.90;;;;;;5104568;28;20059;-68
2023/01/24 05:33:41;;;;;;;19.25;14.48;;;2.80;99.90;;;;;;5072156;27;20066;-68
2023/01/24 05:36:12;;;;;;;20.35;15.82;;;2.80;99.90;;;;;;5087943;28;20043;-68
2023/01/24 05:38:38;;;;;;;19.20;14.75;;;2.80;99.90;;;;;;5094483;28;20050;-68
2023/01/24 05:41:07;;;;;;;20.13;15.73;;;2.80;99.90;;;;;;5107827;28;20401;-68
2023/01/24 05:43:34;;;;;;;21.13;15.88;;;2.80;99.90;;;;;;5090412;28;20062;-68
2023/01/24 05:46:01;;;;;;;20.20;16.02;;;2.80;99.90;;;;;;5110668;28;20112;-69
2023/01/24 05:48:27;;;;;;;19.27;15.20;;;2.80;99.90;;;;;;5113172;28;20043;-68
2023/01/24 05:51:02;;;;;;;21.63;16.83;;;2.80;99.90;;;;;;5063883;28;20101;-69
2023/01/24 05:53:28;;;;;;;;;;;2.80;99.90;;;;;;5108015;28;20035;-69
2023/01/24 05:55:56;;;;;;;21.77;16.23;;;2.80;99.90;;;;;;5103349;28;20281;-68
2023/01/24 05:58:22;;;;;;;21.30;16.63;;;2.80;99.90;;;;;;5105155;28;20052;-69
2023/01/24 06:00:47;;;;;;;21.17;15.95;;;2.80;99.90;;;;;;5088330;28;20101;-72
2023/01/24 06:03:13;;;;;;;22.15;17.17;;;2.80;99.90;;;;;;5110297;28;20047;-69
2023/01/24 06:05:39;;;;;;;22.70;16.65;;;2.80;99.90;;;;;;5112022;28;20043;-68
2023/01/24 06:08:04;;;;;;;22.23;16.52;;;3.00;99.90;;;;;;5111953;28;20504;-69
2023/01/24 06:10:30;;;;;;;25.02;17.00;;;2.80;99.90;;;;;;5087191;28;20382;-69
2023/01/24 06:12:58;;;;;;;21.67;17.05;;;2.80;99.90;;;;;;5090164;28;20120;-69
2023/01/24 06:15:24;;;;;;;26.00;17.95;;;2.80;99.90;;;;;;5094547;28;20060;-68
2023/01/24 06:17:49;;;;;;;24.15;17.73;;;2.70;99.90;;;;;;5102768;28;20047;-72
2023/01/24 06:20:16;;;;;;;22.20;16.45;;;2.70;99.90;;;;;;5112244;28;20071;-69
2023/01/24 06:22:45;;;;;;;21.30;16.27;;;2.70;99.90;;;;;;5087918;28;20533;-68
2023/01/24 06:25:20;;;;;;;23.88;16.92;;;2.70;99.90;;;;;;5089367;28;20123;-68
2023/01/24 06:27:47;;;;;;;21.75;16.40;;;2.70;99.90;;;;;;5105096;28;20043;-69
2023/01/24 06:30:14;;;;;;;23.58;17.42;;;2.60;99.90;;;;;;5084367;28;20044;-69
2023/01/24 06:33:02;;;;;;;21.77;17.52;;;2.70;99.90;;;;;;5080519;28;20082;-68
2023/01/24 06:35:53;;;;;;;25.45;17.95;;;2.70;99.90;;;;;;5100120;28;20442;-68
2023/01/24 06:38:22;;;;;;;22.45;17.75;;;2.60;99.90;;;;;;5071132;28;20055;-69
2023/01/24 06:40:52;;;;;;;24.75;17.92;;;2.60;99.90;;;;;;5100450;28;20055;-68
2023/01/24 06:43:18;;;;;;;24.48;17.77;;;2.60;99.90;;;;;;5104337;28;20047;-69
2023/01/24 06:45:44;;;;;;;27.08;18.98;;;2.60;99.90;;;;;;5083203;28;20062;-68
2023/01/24 06:48:09;;;;;;;25.45;19.17;;;2.70;99.90;;;;;;5073271;28;20052;-68
2023/01/24 06:50:35;;;;;;;25.15;18.60;;;2.80;99.90;;;;;;5096803;28;20234;-68
2023/01/24 06:53:01;;;;;;;26.02;19.20;;;2.60;99.90;;;;;;5111108;28;20048;-68
2023/01/24 06:55:27;;;;;;;25.13;18.30;;;2.80;99.90;;;;;;5082039;28;20039;-69
2023/01/24 06:57:58;;;;;;;25.98;18.98;;;2.60;99.90;;;;;;5093280;28;20190;-69
2023/01/24 07:00:25;;;;;;;26.33;19.23;;;2.60;99.90;;;;;;5107917;27;20046;-68
2023/01/24 07:03:02;;;;;;;25.83;19.00;;;2.60;99.90;;;;;;5104008;27;20075;-69
2023/01/24 07:05:28;;;;;;;27.00;18.92;;;2.60;99.90;;;;;;5092154;28;20558;-68
2023/01/24 07:07:55;;;;;;;27.45;19.77;;;3.10;99.90;;;;;;5097080;28;20055;-68
2023/01/24 07:10:21;;;;;;;24.83;18.60;;;2.60;99.90;;;;;;5092221;28;20119;-68
2023/01/24 07:12:47;;;;;;;26.95;20.08;;;2.60;99.90;;;;;;5081264;28;20036;-69
2023/01/24 07:15:13;;;;;;;25.08;18.15;;;2.60;99.90;;;;;;5088894;28;20047;-69
2023/01/24 07:17:39;;;;;;;26.00;18.52;;;2.60;99.90;;;;;;5100928;28;20050;-68
2023/01/24 07:20:06;;;;;;;23.27;15.32;;;2.60;99.90;;;;;;5083466;28;20130;-68
2023/01/24 07:22:32;;;;;;;26.70;19.30;;;2.60;99.90;;;;;;5083834;28;20116;-69
2023/01/24 07:24:58;;;;;;;24.10;18.15;;;2.60;99.90;;;;;;5079485;28;20052;-70
2023/01/24 07:27:24;;;;;;;25.38;18.88;;;2.60;99.90;;;;;;5092353;28;20201;-69
2023/01/24 07:29:50;;;;;;;25.65;19.85;;;2.60;99.90;;;;;;5110780;28;20646;-70
2023/01/24 07:32:16;;;;;;;22.88;16.67;;;2.90;99.90;;;;;;5096105;28;20122;-68
2023/01/24 07:34:42;;;;;;;24.02;18.60;;;2.60;99.90;;;;;;5098534;28;20044;-67
2023/01/24 07:37:08;;;;;;;24.85;17.80;;;2.60;99.90;;;;;;5101427;28;20031;-67
2023/01/24 07:39:34;;;;;;;21.80;16.27;;;2.50;99.90;;;;;;5087355;28;20059;-68
2023/01/24 07:41:59;;;;;;;24.40;17.42;;;2.70;99.90;;;;;;5096499;28;20047;-69
2023/01/24 07:44:25;;;;;;;21.58;16.08;;;2.50;99.90;;;;;;5074176;28;20052;-69
2023/01/24 07:46:51;;;;;;;19.67;15.52;;;2.60;99.90;;;;;;5063470;28;20048;-69
2023/01/24 07:49:17;;;;;;;19.63;15.48;;;2.50;99.90;;;;;;5098647;28;20052;-69
2023/01/24 07:51:44;;;;;;;20.13;14.48;;;2.60;99.90;;;;;;5076107;28;20094;-69
2023/01/24 07:54:10;;;;;;;19.05;13.95;;;2.70;99.90;;;;;;5087837;28;20047;-69
2023/01/24 07:56:36;;;;;;;21.02;15.55;;;2.50;99.90;;;;;;5066309;28;20060;-68
2023/01/24 07:59:02;;;;;;;19.13;13.82;;;2.60;99.90;;;;;;5089151;28;20177;-69
2023/01/24 08:01:27;;;;;;;19.13;14.80;;;2.50;99.90;;;;;;5105837;28;20129;-69
2023/01/24 08:03:57;;;;;;;21.52;15.13;;;2.50;99.90;;;;;;5106592;28;20054;-68
2023/01/24 08:06:24;;;;;;;19.77;13.88;;;2.50;99.90;;;;;;5097777;28;20043;-69
2023/01/24 08:08:50;;;;;;;18.80;13.18;;;2.60;99.90;;;;;;5108427;28;20055;-68
2023/01/24 08:11:17;;;;;;;15.68;11.50;;;2.60;99.90;;;;;;5090991;28;20740;-70
2023/01/24 08:13:46;;;;;;;17.50;12.63;;;2.50;99.90;;;;;;5089548;28;20165;-68
2023/01/24 08:16:12;;;;;;;15.88;12.48;;;2.50;99.90;;;;;;5102986;28;20113;-68
2023/01/24 08:18:39;;;;;;;16.95;13.02;;;2.50;99.90;;;;;;5078930;28;20085;-75
2023/01/24 08:21:05;;;;;;;17.58;12.98;;;2.50;99.90;;;;;;5080582;28;20050;-69
2023/01/24 08:23:31;;;;;;;19.50;13.45;;;2.90;99.90;;;;;;5104211;28;20150;-68
2023/01/24 08:25:58;;;;;;;18.13;13.25;;;2.50;99.90;;;;;;5081305;28;20044;-69
2023/01/24 08:28:24;;;;;;;20.75;14.30;;;2.50;99.90;;;;;;5075478;28;20052;-68
2023/01/24 08:30:50;;;;;;;17.95;13.32;;;2.60;99.90;;;;;;5078597;28;20128;-66
2023/01/24 08:33:18;;;;;;;17.33;12.77;;;2.50;99.90;;;;;;5075717;28;20058;-67
2023/01/24 08:35:45;;;;;;;17.98;12.38;;;2.60;99.90;;;;;;5103909;28;20194;-67
2023/01/24 08:38:13;;;;;;;18.75;13.43;;;2.50;99.90;;;;;;5098483;28;20051;-71
2023/01/24 08:40:39;;;;;;;17.42;12.50;;;2.50;99.90;;;;;;5105768;28;20374;-67
2023/01/24 08:43:05;;;;;;;18.42;11.55;;;2.50;99.90;;;;;;5099334;28;20052;-68
2023/01/24 08:45:31;;;;;;;16.40;12.30;;;3.00;99.90;;;;;;5085303;28;20495;-73
2023/01/24 08:47:56;;;;;;;15.52;11.73;;;2.50;99.90;;;;;;5050505;28;20071;-68
2023/01/24 08:50:22;;;;;;;15.77;11.57;;;2.50;99.90;;;;;;5092078;28;20142;-68
2023/01/24 08:52:49;;;;;;;16.58;12.05;;;2.50;99.90;;;;;;5095148;28;20040;-68
2023/01/24 08:55:15;;;;;;;18.83;11.65;;;2.50;99.90;;;;;;5078200;28;20771;-69
2023/01/24 08:57:41;;;;;;;14.65;11.55;;;2.60;99.90;;;;;;5105960;28;20503;-66
2023/01/24 09:00:07;;;;;;;16.60;11.10;;;2.60;99.90;;;;;;5087664;28;20059;-66
2023/01/24 09:02:36;;;;;;;16.50;12.73;;;2.60;99.90;;;;;;5063127;28;20082;-68
2023/01/24 09:05:06;;;;;;;16.73;11.98;;;2.60;99.90;;;;;;5100896;28;20051;-70
2023/01/24 09:07:34;;;;;;;17.70;12.98;;;2.60;99.90;;;;;;5106660;28;20086;-67
2023/01/24 09:09:59;;;;;;;17.35;13.13;;;2.60;99.90;;;;;;5102554;28;20049;-67
2023/01/24 09:12:25;;;;;;;15.35;11.75;;;2.60;99.90;;;;;;5105764;28;20043;-67
2023/01/24 09:14:51;;;;;;;16.60;12.52;;;2.60;99.90;;;;;;5105433;28;20115;-66
2023/01/24 09:17:16;;;;;;;17.10;12.35;;;2.60;99.90;;;;;;5109792;28;20135;-69
2023/01/24 09:19:42;;;;;;;17.35;12.45;;;2.60;99.90;;;;;;5108537;28;20039;-67
2023/01/24 09:22:08;;;;;;;14.57;10.82;;;2.80;99.90;;;;;;5088772;28;20130;-67
2023/01/24 09:24:33;;;;;;;17.02;11.80;;;2.60;99.90;;;;;;5068161;28;20074;-68
2023/01/24 09:26:59;;;;;;;14.85;10.45;;;2.60;99.90;;;;;;5101395;28;20146;-68
2023/01/24 09:29:25;;;;;;;15.70;11.63;;;2.60;99.90;;;;;;5094459;28;20490;-67
2023/01/24 09:31:51;;;;;;;14.82;11.43;;;2.60;99.90;;;;;;5107623;28;20052;-67
2023/01/24 09:34:16;;;;;;;16.00;11.55;;;2.60;99.90;;;;;;5100853;28;20048;-69
2023/01/24 09:36:42;;;;;;;14.95;11.25;;;2.70;99.90;;;;;;5088611;28;20039;-66
2023/01/24 09:39:08;;;;;;;15.23;11.63;;;2.70;99.90;;;;;;5112504;28;20488;-69
2023/01/24 09:42:00;;;;;;;14.68;11.27;;;2.60;99.90;;;;;;5111461;28;20100;-67
2023/01/24 09:44:39;;;;;;;14.32;10.38;;;2.50;99.90;;;;;;5101564;28;20048;-68
2023/01/24 09:47:24;;;;;;;15.60;11.52;;;2.60;99.90;;;;;;5104677;28;20582;-67
2023/01/24 09:50:01;;;;;;;16.65;12.18;;;2.60;99.90;;;;;;5083554;28;20044;-67
2023/01/24 09:52:57;;;;;;;14.13;10.60;;;2.70;99.90;;;;;;5107853;28;20094;-69
2023/01/24 09:55:29;;;;;;;16.38;10.93;;;2.70;99.90;;;;;;5061895;28;20555;-69
2023/01/24 09:58:18;;;;;;;15.77;11.23;;;2.70;99.90;;;;;;5070715;28;20464;-68
2023/01/24 10:00:44;;;;;;;16.10;11.10;;;2.70;99.90;;;;;;5084826;28;20047;-67
2023/01/24 10:03:21;;;;;;;14.55;11.40;;;2.70;99.90;;;;;;5107350;28;20462;-66
2023/01/24 10:05:53;;;;;;;17.23;10.43;;;2.80;99.90;;;;;;5085018;28;20050;-69
2023/01/24 10:08:24;;;;;;;14.52;10.82;;;2.80;99.90;;;;;;5079901;28;20040;-74
2023/01/24 10:11:38;;;;;;;14.68;11.38;;;2.80;99.90;;;;;;5084438;28;20089;-69
2023/01/24 10:14:30;;;;;;;12.77;9.90;;;2.80;99.90;;;;;;5031458;28;20569;-70
2023/01/24 10:17:15;;;;;;;15.23;11.13;;;2.80;99.90;;;;;;5084646;28;20110;-69
2023/01/24 10:20:05;;;;;;;15.93;11.50;;;2.80;99.90;;;;;;5080417;28;20055;-69
2023/01/24 10:23:04;;;;;;;16.65;11.07;;;2.80;99.90;;;;;;5078765;28;20131;-69
2023/01/24 10:25:49;;;;;;;16.10;10.88;;;2.80;99.90;;;;;;5099460;28;20071;-70
2023/01/24 10:28:32;;;;;;;14.10;10.20;;;2.90;99.90;;;;;;5103816;28;20075;-70
2023/01/24 10:31:06;;;;;;;13.63;10.63;;;2.80;99.90;;;;;;5100227;28;20048;-70
2023/01/24 10:33:54;;;;;;;;;;;2.80;99.90;;;;;;5086566;28;20040;-70
2023/01/24 10:36:44;;;;;;;15.65;11.38;;;2.80;99.90;;;;;;5090831;28;20129;-69
2023/01/24 10:39:11;;;;;;;14.00;10.65;;;2.80;99.90;;;;;;5094068;28;20126;-69
2023/01/24 10:41:37;;;;;;;15.70;11.43;;;2.80;99.90;;;;;;5105631;28;20130;-68
2023/01/24 10:44:18;;;;;;;16.70;12.05;;;2.90;99.90;;;;;;5094792;28;20166;-71
2023/01/24 10:47:02;;;;;;;16.67;10.80;;;2.80;99.90;;;;;;5093632;28;20696;-70
2023/01/24 10:49:31;;;;;;;15.30;10.70;;;2.90;99.90;;;;;;5082394;28;20067;-70
2023/01/24 10:52:19;;;;;;;13.50;10.00;;;2.90;99.90;;;;;;5093321;28;20051;-70
2023/01/24 10:54:50;;;;;;;14.70;11.27;;;2.90;99.90;;;;;;5084866;28;20194;-70
2023/01/24 10:57:38;;;;;;;14.10;10.20;;;2.90;99.90;;;;;;5076922;28;20100;-70
2023/01/24 11:00:11;;;;;;;17.02;10.80;;;2.90;99.90;;;;;;5077324;28;20073;-70
2023/01/24 11:02:36;;;;;;;16.35;11.43;;;2.90;99.90;;;;;;5091742;28;20036;-70
2023/01/24 11:05:05;;;;;;;15.13;10.70;;;3.00;99.90;;;;;;5092678;28;20047;-70
2023/01/24 11:07:33;;;;;;;14.60;10.48;;;2.90;99.90;;;;;;5061398;28;20059;-69
2023/01/24 11:10:17;;;;;;;22.35;15.18;;;2.90;99.90;;;;;;5086232;28;20048;-70
2023/01/24 11:12:56;;;;;;;14.02;10.82;;;2.90;99.90;;;;;;5109844;28;20082;-70
2023/01/24 11:15:31;;;;;;;15.57;10.88;;;2.90;99.90;;;;;;5111381;28;20047;-71
2023/01/24 11:18:05;;;;;;;15.20;11.07;;;2.90;99.90;;;;;;5090348;28;20078;-70
2023/01/24 11:20:33;;;;;;;15.18;10.57;;;2.90;99.90;;;;;;5089906;28;20039;-70
2023/01/24 11:23:27;;;;;;;14.55;10.48;;;2.90;99.90;;;;;;5089626;28;20048;-69
2023/01/24 11:25:55;;;;;;;13.27;10.43;;;2.90;99.90;;;;;;5107963;28;20048;-70
2023/01/24 11:28:32;;;;;;;14.18;11.00;;;2.90;99.90;;;;;;5089631;28;20047;-67
2023/01/24 11:31:27;;;;;;;15.45;10.48;;;2.90;99.90;;;;;;5098017;28;20048;-68
2023/01/24 11:34:19;;;;;;;14.32;10.95;;;2.90;99.90;;;;;;5079843;28;20071;-68
2023/01/24 11:37:06;;;;;;;14.70;11.05;;;2.90;99.90;;;;;;5089096;28;20051;-69
2023/01/24 11:39:59;;;;;;;15.32;10.98;;;2.90;99.90;;;;;;5110628;28;20048;-70
2023/01/24 11:43:02;;;;;;;14.10;11.00;;;2.90;99.90;;;;;;5084042;28;20116;-70
2023/01/24 11:46:05;;;;;;;14.30;11.13;;;2.90;99.90;;;;;;5092891;28;20036;-71
2023/01/24 11:48:53;;;;;;;14.50;10.98;;;2.90;99.90;;;;;;5071969;28;20079;-69
2023/01/24 11:51:44;;;;;;;16.30;11.05;;;2.90;99.90;;;;;;5109923;28;20043;-69
2023/01/24 11:54:30;;;;;;;15.25;11.65;;;2.90;99.90;;;;;;5089397;28;20047;-72
2023/01/24 11:57:09;;;;;;;14.18;11.02;;;2.90;99.90;;;;;;5086688;28;20055;-70
2023/01/24 11:59:54;;;;;;;17.10;12.00;;;2.90;99.90;;;;;;5109266;28;20393;-70
2023/01/24 12:02:23;;;;;;;20.13;14.35;;;2.90;99.90;;;;;;5108131;28;20489;-70
2023/01/24 12:05:03;;;;;;;15.93;11.77;;;3.00;99.90;;;;;;5090367;28;20127;-69
2023/01/24 12:08:21;;;;;;;23.17;16.08;;;3.00;99.90;;;;;;5092728;28;20039;-69
2023/01/24 12:11:35;;;;;;;23.13;15.30;;;3.00;99.90;;;;;;4984022;28;20622;-69
2023/01/24 12:14:12;;;;;;;27.73;17.98;;;3.00;99.90;;;;;;5029976;28;20410;-69
2023/01/24 12:17:04;;;;;;;20.88;12.70;;;3.00;99.90;;;;;;5034439;28;20553;-69
2023/01/24 12:19:57;;;;;;;17.65;12.68;;;3.00;99.90;;;;;;5064968;28;20055;-69
2023/01/24 12:22:27;;;;;;;16.48;11.77;;;3.00;99.90;;;;;;5109206;28;20508;-68
2023/01/24 12:25:05;;;;;;;14.73;11.57;;;2.70;99.90;;;;;;5100426;28;20044;-70
2023/01/24 12:27:35;;;;;;;18.02;12.38;;;2.90;99.90;;;;;;5115180;28;20047;-68
2023/01/24 12:30:06;;;;;;;16.15;12.10;;;2.90;99.90;;;;;;5079156;28;20050;-69
2023/01/24 12:32:41;;;;;;;18.15;12.38;;;3.00;99.90;;;;;;5090558;28;20052;-69
2023/01/24 12:35:38;;;;;;;15.05;11.60;;;3.00;99.90;;;;;;5111111;28;20131;-69
2023/01/24 12:38:08;;;;;;;15.10;11.68;;;2.40;99.90;;;;;;5086402;28;20044;-69
2023/01/24 12:41:12;;;;;;;16.05;12.57;;;3.00;99.90;;;;;;5087057;28;20469;-69
2023/01/24 12:44:08;;;;;;;20.73;12.77;;;3.00;99.90;;;;;;5063978;28;20044;-68
2023/01/24 12:47:11;;;;;;;18.17;12.70;;;3.10;99.90;;;;;;5109991;28;20040;-67
2023/01/24 12:50:21;;;;;;;18.77;13.85;;;3.00;99.90;;;;;;5102340;28;20035;-68
2023/01/24 12:52:50;;;;;;;16.40;11.98;;;3.00;99.90;;;;;;5078915;28;20039;-69
2023/01/24 12:55:31;;;;;;;16.42;11.85;;;3.30;99.90;;;;;;5094983;28;20459;-68
2023/01/24 12:58:03;;;;;;;16.10;11.52;;;3.00;99.90;;;;;;5095596;28;20052;-69
2023/01/24 13:01:12;;;;;;;18.38;12.82;;;3.00;99.90;;;;;;5104684;28;20426;-67
2023/01/24 13:04:04;;;;;;;19.55;12.65;;;3.00;99.90;;;;;;5067468;28;20381;-68
2023/01/24 13:06:41;;;;;;;17.25;12.82;;;3.00;99.90;;;;;;5089687;28;20402;-69
2023/01/24 13:09:43;;;;;;;17.98;12.60;;;3.00;99.90;;;;;;5083769;28;20055;-68
2023/01/24 13:12:18;;;;;;;15.52;10.52;;;3.00;99.90;;;;;;5096907;28;20044;-68
2023/01/24 13:14:51;;;;;;;;;;;3.10;99.90;;;;;;5110373;28;20122;-69
2023/01/24 13:17:31;;;;;;;21.23;13.65;;;3.00;99.90;;;;;;5091196;28;19926;-68
2023/01/24 13:19:56;;;;;;;17.27;12.45;;;3.00;99.90;;;;;;5105966;28;20040;-68
2023/01/24 13:22:37;;;;;;;17.02;12.88;;;3.00;99.90;;;;;;5112717;28;20091;-69
2023/01/24 13:25:28;;;;;;;17.98;12.82;;;3.00;99.90;;;;;;5113227;28;20096;-69
2023/01/24 13:28:24;;;;;;;18.75;12.57;;;3.10;99.90;;;;;;5090477;28;20079;-67
2023/01/24 13:31:08;;;;;;;16.80;12.00;;;3.00;99.90;;;;;;5056141;28;20202;-68
2023/01/24 13:33:46;;;;;;;16.60;13.35;;;3.00;99.90;;;;;;5091594;28;20434;-68
2023/01/24 13:36:22;;;;;;;20.67;13.40;;;3.00;99.90;;;;;;5085295;28;20071;-68